Meteo Giornale » Osservazioni meteo Turkmenistan » Turkmenabat
ore: 02:00 - Osservazioni Meteo Turkmenabat
Lat. 39° 5' N Lon. 63° 37' E Alt. 192 metri s.l.m.
24 °C
Sereno
Temp. 24 Ore
24 °C
35 °C
Nord
25.9 Km/h
Dew point 0 °C
Umidità 20 %
Visibilità 10 Km
Il sole sorge alle ore 06:14
Il sole tramonta alle ore 19:17
| Data e Ora | Cielo e Fenomeni | T °C | DP °C | Um. % | Pres. hPa | Vis. km | Vento km/h | |
|---|---|---|---|---|---|---|---|---|
| Oggi h: 02:00 | Sereno | 24 | 0 | 20 | 1011 | 10 | N 25.9 | |
| Oggi h: 01:00 | Sereno | 25 | 0 | 19 | 1011 | 10 | N 22.2 | |
| Oggi h: 00:00 | Sereno | 26 | 0 | 18 | 1011 | 10 | N 22.2 | |
| Ieri h: 23:00 | Sereno | 27 | 0 | 17 | 1011 | 10 | N 22.2 | |
| Ieri h: 22:00 | Sereno | 28 | 0 | 16 | 1011 | 10 | N 22.2 | |
| Ieri h: 21:00 | Sereno | 29 | 4 | 20 | 1011 | 10 | N 22.2 | |
| Ieri h: 20:00 | Sereno | 30 | 5 | 20 | 1011 | 10 | N 18.5 | |
| Ieri h: 19:00 | Sereno | 31 | 7 | 22 | 1010 | 10 | N/NE 22.2 | |
| Ieri h: 18:00 | Sereno | 34 | 7 | 18 | 1010 | 10 | N/NE 25.9 | |
| Ieri h: 17:00 | Sereno | 35 | 6 | 16 | 1010 | 10 | N 29.6 | |
| Ieri h: 16:00 | Sereno | 35 | 6 | 16 | 1010 | 10 | N 33.3 | |
| Ieri h: 15:00 | Sereno | 35 | 7 | 17 | 1010 | 9 | N 37 | |
| Ieri h: 14:00 | Sereno | 35 | 7 | 17 | 1011 | 10 | N 33.3 | |
| Ieri h: 13:00 | Sereno | 34 | 8 | 20 | 1011 | 10 | N 25.9 | |
| Ieri h: 12:00 | Sereno | 33 | 8 | 21 | 1011 | 9 | N 33.3 | |
| Ieri h: 11:00 | Sereno | 32 | 10 | 25 | 1011 | 10 | N 29.6 | |
| Ieri h: 10:00 | Sereno | 31 | 10 | 27 | 1011 | 10 | N 29.6 | |
| Ieri h: 09:00 | Sereno | 30 | 10 | 28 | 1010 | 10 | N 29.6 | |
| Ieri h: 08:00 | Sereno | 27 | 11 | 36 | 1010 | 0 | N/NO 22.2 | |
| Ieri h: 07:00 | Sereno | 26 | 11 | 39 | 1009 | 10 | N/NO 14.8 | |
| Ieri h: 06:00 | Sereno | 25 | 14 | 50 | 1009 | 10 | N/NO 18.5 | |
| Ieri h: 05:00 | Sereno | 26 | 14 | 47 | 1008 | 10 | N/NO 14.8 | |
| Ieri h: 04:00 | Sereno | 27 | 15 | 47 | 1008 | 10 | N/NO 14.8 | |
| Ieri h: 03:00 | Sereno | 28 | 16 | 48 | 1008 | 10 | NO 14.8 | |



